createdAt,value
2022-11-22T00:00:02.633Z,-4
2022-11-22T00:20:02.361Z,-4.1
2022-11-22T00:40:02.647Z,-4
2022-11-22T01:00:03.001Z,-4.1
2022-11-22T01:20:02.543Z,-4.1
2022-11-22T01:40:02.972Z,-4.1
2022-11-22T02:00:02.241Z,-4
2022-11-22T02:20:03.299Z,-3.9
2022-11-22T02:40:02.953Z,-3.9
2022-11-22T03:00:02.300Z,-3.8
2022-11-22T03:20:02.967Z,-3.9
2022-11-22T03:40:02.623Z,-4.1
2022-11-22T04:00:03.168Z,-4.1
2022-11-22T04:20:02.809Z,-3.9
2022-11-22T04:40:02.433Z,-3.9
2022-11-22T05:00:02.828Z,-3.8
2022-11-22T05:20:02.246Z,-3.7
2022-11-22T05:40:02.780Z,-3.7
2022-11-22T06:00:02.184Z,-3.5
2022-11-22T06:20:06.327Z,-3.5
2022-11-22T06:40:02.446Z,-3.3
2022-11-22T07:00:02.846Z,-3.3
2022-11-22T07:20:02.555Z,-3.1
2022-11-22T07:40:02.985Z,-3.1
2022-11-22T08:00:02.814Z,-2.9
2022-11-22T08:20:02.939Z,-2.8
2022-11-22T08:40:02.854Z,-2.7
2022-11-22T09:00:02.463Z,-2.5
2022-11-22T09:20:02.658Z,-2.3
2022-11-22T09:40:02.307Z,-2.1
2022-11-22T10:00:03.256Z,-2
2022-11-22T10:20:02.993Z,-1.8
2022-11-22T10:40:02.644Z,-1.7
2022-11-22T11:00:03.429Z,-1.5
2022-11-22T11:20:02.427Z,-1.4
2022-11-22T11:40:02.895Z,-1.2
2022-11-22T12:00:02.622Z,-1
2022-11-22T12:20:02.355Z,-0.8
2022-11-22T12:40:02.785Z,-0.8
2022-11-22T13:00:02.470Z,-0.7
2022-11-22T13:20:02.567Z,-0.5
2022-11-22T13:40:03.247Z,-0.5
2022-11-22T14:00:02.856Z,-0.5
2022-11-22T14:20:02.695Z,-0.5
2022-11-22T14:40:02.290Z,-0.5
2022-11-22T15:00:03.495Z,-0.5
2022-11-22T16:00:03.202Z,-0.4
2022-11-22T16:20:02.735Z,-0.5
2022-11-22T16:40:02.586Z,-0.5
2022-11-22T17:00:03.983Z,-0.4
2022-11-22T17:20:03.230Z,-0.4
2022-11-22T17:40:03.037Z,-0.4
2022-11-22T18:00:03.116Z,-0.5
2022-11-22T18:20:03.305Z,-0.5
2022-11-22T18:40:02.718Z,-0.5
2022-11-22T19:00:02.342Z,-0.5
2022-11-22T19:20:02.312Z,-0.5
2022-11-22T19:40:02.825Z,-0.5
2022-11-22T20:00:03.185Z,-0.5
2022-11-22T20:40:03.279Z,-0.3
2022-11-22T21:00:02.869Z,-0.4
2022-11-22T21:20:03.209Z,-0.2
2022-11-22T21:40:02.907Z,-0.2
2022-11-22T22:00:02.451Z,-0.2
2022-11-22T22:20:02.332Z,-0.2
2022-11-22T22:40:03.173Z,-0.2
2022-11-22T23:00:02.655Z,-0.2
2022-11-22T23:20:02.377Z,-0.1
2022-11-22T23:40:02.862Z,-0.1
